Chatham, NY (12037)

10:17 AM EST on November 26, 2014 (GMT -0500)
chatham | Change Station
CLOSE
Current Station
Personal Weather Station
Location: Spencertown, NY
Elevation: 1017 ft
Nearby Weather Stations
Active Advisory: Winter Storm Warning

Elev 1017 ft 42.32 °N, 73.52 °W | Updated 2 minutes ago

Snow
Snow
31.5 °F
Feels Like 32 °F
N
0.0
Wind Variable Wind from NE
Gusts 0.0 mph

Today
High -- | Low -- °F
--% Chance of Precip.
Yesterday
High -- | Low -- °F
Precip. -- in
6:58 AM 4:24 PM
Waxing Crescent, 20% visible
Pressure 30.11 in
Visibility 0.2 miles
Clouds
Windchill 32 °F
Dew Point 29 °F
Humidity 92%
Rainfall 0.00 in
Snow Depth Not available.
UV Not available.
Pollen .10 out of 12
Air Quality Not available.
Flu Activity Not available.
SPECI KPSF 261511Z AUTO 32003KT 1/4SM +SN FG VV009 00/M01 A3011 RMK AO2 P0003 T00001006

More Conditions Fewer Conditions

Pressure 30.11 in
Visibility 0.2 miles
Clouds
Windchill 32 °F
Dew Point 29 °F
Humidity 92%
Rainfall 0.00 in
Snow Depth Not available.
UV Not available.
Pollen .10 out of 12
Air Quality Not available.
Flu Activity Not available.
SPECI KPSF 261511Z AUTO 32003KT 1/4SM +SN FG VV009 00/M01 A3011 RMK AO2 P0003 T00001006

More Conditions Fewer Conditions

10-Day Weather Forecast

Almanac

Astronomy

Nov. 26, 2014 Rise Set
Actual Time
Civil Twilight
Nautical Twilight
Astronomical Twilight
Moon
Length of Visible Light
Length of Day
Tomorrow will be .
, % of the Moon is Illuminated

Today's Extremes

State Highs State Lows

Community

WunderPhotos

Upload Photos

1,773,771 photos uploaded!

WunderBlogs® & News

Nearby

Air Quality

  Air Quality AQ Index Pollutant
Not available.

Snow Depth

Station Depth Elevation

Earthquake Activity

City Distance Mag. Time & Date
Minimum magnitude displayed is 2.5.

Coastal Water Temperatures

Place Temperature

Nearby Weather Stations